Terminal Aerodrome Forecast
Issued by NWS

Home | Current Version | Previous Version | Graphics & Text | Print | Product List | Glossary Off
Versions: 1 2 3 4 5 6 7 8 9 10 11 12 13 14 15

000
FTUS43 KGRB 032326
TAFAUW
TAF
KAUW 032326Z 0400/0424 08006KT P6SM SCT030 BKN035
     FM040300 04004KT P6SM SCT015 SCT035
     FM040600 VRB02KT 3SM BR SCT004 BKN015
      TEMPO 0408/0412 1SM BR BKN004
     FM041500 06005KT P6SM BKN015
     FM041700 08005KT P6SM SCT020 SCT035=

USA.gov is the U.S. government's official web portal to all federal, state and local government web resources and services.